KBTV/BTV METAR and TAF weather

Enter ICAO airport designator
Station Type Date Time Source
KBTV METAR 2021/04/14 18:54 UTC NOAA

KBTV 141854Z 32007KT 10SM FEW070 FEW100 FEW160 21/02 A2990 RMK AO2 SLP125 T02110022


Station Type Date Time Source
KBTV Decoded METAR 2021/04/14 18:54 UTC NOAA

BURLINGTON INTERNATIONAL, VT, United States (KBTV) 44-28N 73-09W 105M
Apr 14, 2021 - 02:54 PM EDT / 2021.04.14 1854 UTC
Wind: from the NW (320 degrees) at 8 MPH (7 KT):0
Visibility: 10 mile(s):0
Sky conditions: mostly clear
Temperature: 70.0 F (21.1 C)
Dew Point: 36.0 F (2.2 C)
Relative Humidity: 28%
Pressure (altimeter): 29.9 in. Hg (1012 hPa)
ob: KBTV 141854Z 32007KT 10SM FEW070 FEW100 FEW160 21/02 A2990 RMK AO2 SLP125 T02110022
cycle: 19

Station Type Date Time Source
KBTV TAF 2021/04/14 18:24 UTC NOAA

TAF KBTV 141723Z 1418/1518 33005KT P6SM FEW080
FM150000 VRB03KT P6SM SCT070
FM151000 14005KT P6SM VCSH OVC060
FM151500 16007KT P6SM -RA OVC040

Example: see airport list